createdAt,value
2019-01-19T00:01:40.475Z,6.10
2019-01-19T00:07:30.910Z,6.30
2019-01-19T00:12:57.863Z,6.30
2019-01-19T00:18:35.392Z,6.40
2019-01-19T00:24:14.061Z,6.40
2019-01-19T00:29:49.588Z,6.40
2019-01-19T00:35:39.788Z,6.50
2019-01-19T00:41:21.258Z,6.30
2019-01-19T00:47:04.568Z,6.10
2019-01-19T00:52:31.441Z,6.10
2019-01-19T00:58:29.702Z,6.20
2019-01-19T01:04:07.332Z,6.30
2019-01-19T01:09:50.883Z,6.30
2019-01-19T01:15:41.976Z,6.40
2019-01-19T01:21:23.811Z,6.40
2019-01-19T01:27:11.819Z,6.30
2019-01-19T01:32:42.970Z,6.30
2019-01-19T01:38:05.710Z,6.30
2019-01-19T01:43:41.206Z,6.50
2019-01-19T01:49:24.525Z,6.40
2019-01-19T01:55:00.415Z,6.30
2019-01-19T02:01:02.707Z,6.10
2019-01-19T02:06:33.206Z,6.10
2019-01-19T02:12:09.957Z,6.10
2019-01-19T02:18:05.895Z,6.20
2019-01-19T02:23:54.008Z,6.00
2019-01-19T02:29:48.314Z,6.00
2019-01-19T02:35:29.198Z,5.90
2019-01-19T02:41:11.452Z,6.10
2019-01-19T02:47:11.788Z,6.10
2019-01-19T02:52:42.000Z,6.10
2019-01-19T02:58:18.208Z,6.30
2019-01-19T03:04:03.326Z,6.30
2019-01-19T03:10:08.498Z,6.20
2019-01-19T03:15:56.074Z,6.10
2019-01-19T03:22:02.935Z,6.00
2019-01-19T03:27:43.711Z,5.90
2019-01-19T03:33:35.831Z,5.90
2019-01-19T03:39:15.468Z,5.80
2019-01-19T03:45:12.707Z,5.90
2019-01-19T03:51:03.228Z,5.90
2019-01-19T03:56:50.075Z,5.90
2019-01-19T04:02:16.982Z,6.00
2019-01-19T04:08:11.068Z,6.10
2019-01-19T04:13:49.952Z,5.90
2019-01-19T04:19:12.152Z,6.20
2019-01-19T04:24:22.298Z,6.40
2019-01-19T04:29:32.173Z,6.30
2019-01-19T04:34:39.796Z,6.10
2019-01-19T04:39:46.525Z,6.10
2019-01-19T04:44:56.686Z,5.90
2019-01-19T04:50:03.535Z,5.80
2019-01-19T04:55:12.844Z,5.80
2019-01-19T05:00:20.555Z,5.80
2019-01-19T05:05:26.506Z,5.80
2019-01-19T05:10:34.074Z,5.80
2019-01-19T05:15:42.875Z,5.90
2019-01-19T05:20:50.000Z,6.20
2019-01-19T05:25:57.126Z,6.40
2019-01-19T05:31:03.639Z,6.30
2019-01-19T05:36:13.206Z,6.20
2019-01-19T05:41:23.104Z,6.10
2019-01-19T05:46:29.799Z,6.10
2019-01-19T05:51:37.173Z,6.00
2019-01-19T05:56:45.526Z,5.90
2019-01-19T06:01:54.610Z,5.80
2019-01-19T06:07:03.166Z,5.70
2019-01-19T06:12:09.926Z,5.60
2019-01-19T06:17:15.827Z,5.70
2019-01-19T06:22:23.640Z,5.70
2019-01-19T06:27:31.506Z,5.70
2019-01-19T06:32:37.484Z,5.60
2019-01-19T06:37:45.011Z,5.90
2019-01-19T06:42:52.532Z,6.00
2019-01-19T06:48:00.056Z,6.20
2019-01-19T06:53:06.168Z,6.30
2019-01-19T06:58:14.815Z,6.10
2019-01-19T07:03:24.641Z,6.20
2019-01-19T07:08:33.347Z,6.30
2019-01-19T07:13:42.211Z,6.30
2019-01-19T07:18:49.123Z,6.30
2019-01-19T07:23:58.985Z,6.10
2019-01-19T07:29:07.980Z,5.90
2019-01-19T07:34:16.739Z,5.90
2019-01-19T07:39:23.565Z,5.80
2019-01-19T07:44:31.371Z,5.80
2019-01-19T07:49:37.350Z,5.90
2019-01-19T07:54:45.032Z,6.00
2019-01-19T07:59:52.738Z,6.20
2019-01-19T08:04:59.479Z,6.40
2019-01-19T08:10:08.379Z,6.70
2019-01-19T08:15:18.067Z,6.70
2019-01-19T08:20:25.788Z,6.70
2019-01-19T08:25:33.335Z,6.80
2019-01-19T08:30:41.414Z,6.80
2019-01-19T08:35:49.144Z,6.90
2019-01-19T08:40:56.244Z,7.00
2019-01-19T08:46:04.024Z,7.20
2019-01-19T08:51:11.455Z,7.30
2019-01-19T08:56:17.636Z,7.40
2019-01-19T09:01:24.095Z,7.60
2019-01-19T09:06:33.479Z,7.80
2019-01-19T09:11:40.864Z,8.00
2019-01-19T09:16:47.144Z,8.50
2019-01-19T09:21:54.085Z,8.70
2019-01-19T09:27:00.657Z,8.80
2019-01-19T09:32:08.436Z,8.90
2019-01-19T09:37:14.471Z,9.20
2019-01-19T09:42:22.030Z,9.20
2019-01-19T09:47:29.613Z,9.20
2019-01-19T09:52:36.604Z,9.20
2019-01-19T09:57:43.662Z,9.40
2019-01-19T10:02:51.236Z,9.60
2019-01-19T10:07:58.200Z,9.80
2019-01-19T10:13:04.248Z,10.20
2019-01-19T10:18:11.472Z,10.60
2019-01-19T10:23:17.548Z,10.90
2019-01-19T10:28:23.942Z,10.90
2019-01-19T10:33:29.937Z,11.20
2019-01-19T10:38:37.404Z,11.30
2019-01-19T10:43:43.751Z,11.50
2019-01-19T10:48:51.900Z,11.60
2019-01-19T10:53:59.102Z,11.90
2019-01-19T10:59:05.283Z,12.30
2019-01-19T11:04:12.676Z,12.80
2019-01-19T11:09:19.287Z,13.00
2019-01-19T11:14:27.105Z,13.10
2019-01-19T11:19:34.090Z,13.40
2019-01-19T11:24:40.091Z,13.70
2019-01-19T11:29:46.487Z,13.30
2019-01-19T11:34:54.184Z,13.90
2019-01-19T11:40:01.083Z,15.00
2019-01-19T11:45:09.298Z,15.10
2019-01-19T11:50:16.960Z,15.40
2019-01-19T11:55:24.258Z,15.10
2019-01-19T12:00:32.934Z,15.40
2019-01-19T12:05:40.505Z,15.50
2019-01-19T12:10:48.232Z,15.10
2019-01-19T12:15:55.513Z,15.70
2019-01-19T12:21:03.218Z,15.90
2019-01-19T12:26:10.114Z,15.60
2019-01-19T12:31:17.946Z,15.60
2019-01-19T12:36:25.760Z,15.70
2019-01-19T12:41:33.586Z,15.50
2019-01-19T12:46:41.307Z,15.30
2019-01-19T12:51:48.806Z,15.00
2019-01-19T12:56:54.820Z,15.40
2019-01-19T13:02:02.484Z,15.90
2019-01-19T13:07:15.055Z,15.90
2019-01-19T13:12:47.956Z,15.80
2019-01-19T13:18:37.499Z,15.70
2019-01-19T13:24:13.709Z,15.90
2019-01-19T13:30:13.419Z,15.80
2019-01-19T13:36:01.089Z,15.80
2019-01-19T13:41:46.494Z,15.50
2019-01-19T13:47:43.257Z,15.50
2019-01-19T13:53:26.429Z,15.70
2019-01-19T13:59:07.912Z,16.20
2019-01-19T14:04:45.262Z,16.30
2019-01-19T14:10:17.923Z,16.80
2019-01-19T14:16:20.839Z,16.90
2019-01-19T14:22:02.073Z,17.30
2019-01-19T14:27:36.659Z,18.10
2019-01-19T14:33:07.666Z,18.50
2019-01-19T14:38:56.566Z,18.50
2019-01-19T14:44:30.168Z,18.30
2019-01-19T14:50:31.895Z,17.40
2019-01-19T14:56:30.947Z,16.60
2019-01-19T15:02:10.968Z,15.80
2019-01-19T15:08:04.359Z,15.40
2019-01-19T15:13:51.466Z,14.90
2019-01-19T15:19:29.907Z,14.30
2019-01-19T15:25:24.562Z,14.50
2019-01-19T15:31:11.953Z,15.60
2019-01-19T15:37:03.007Z,15.10
2019-01-19T15:42:50.623Z,14.50
2019-01-19T15:48:41.541Z,14.40
2019-01-19T15:54:31.192Z,15.30
2019-01-19T16:00:04.467Z,14.40
2019-01-19T16:06:00.963Z,13.40
2019-01-19T16:11:48.671Z,12.70
2019-01-19T16:17:32.673Z,12.30
2019-01-19T16:23:01.719Z,12.10
2019-01-19T16:28:52.378Z,11.80
2019-01-19T16:34:55.656Z,11.50
2019-01-19T16:40:31.869Z,11.30
2019-01-19T16:46:21.788Z,11.20
2019-01-19T16:51:53.191Z,11.00
2019-01-19T16:57:29.763Z,10.70
2019-01-19T17:03:07.179Z,10.40
2019-01-19T17:08:38.981Z,10.10
2019-01-19T17:14:14.959Z,9.50
2019-01-19T17:20:08.463Z,9.00
2019-01-19T17:26:05.611Z,9.00
2019-01-19T17:31:41.234Z,8.80
2019-01-19T17:37:06.865Z,8.90
2019-01-19T17:42:55.893Z,8.40
2019-01-19T17:48:43.250Z,8.30
2019-01-19T17:54:27.235Z,8.30
2019-01-19T18:00:01.883Z,8.20
2019-01-19T18:05:51.639Z,8.10
2019-01-19T18:11:38.795Z,8.00
2019-01-19T18:17:28.910Z,8.00
2019-01-19T18:23:14.329Z,7.80
2019-01-19T18:29:18.054Z,7.90
2019-01-19T18:35:04.965Z,7.80
2019-01-19T18:40:47.178Z,7.70
2019-01-19T18:46:33.059Z,7.50
2019-01-19T18:52:29.243Z,7.50
2019-01-19T18:58:17.858Z,7.50
2019-01-19T19:04:14.504Z,7.40
2019-01-19T19:09:39.410Z,7.30
2019-01-19T19:15:15.059Z,7.10
2019-01-19T19:20:46.024Z,7.10
2019-01-19T19:26:12.111Z,6.90
2019-01-19T19:31:47.620Z,6.90
2019-01-19T19:37:40.914Z,7.10
2019-01-19T19:43:11.143Z,7.30
2019-01-19T19:49:16.031Z,7.30
2019-01-19T19:54:24.807Z,7.30
2019-01-19T19:59:31.373Z,7.50
2019-01-19T20:04:38.977Z,7.80
2019-01-19T20:09:45.812Z,7.60
2019-01-19T20:14:53.483Z,7.60
2019-01-19T20:20:00.579Z,7.40
2019-01-19T20:25:08.735Z,7.20
2019-01-19T20:30:16.138Z,7.30
2019-01-19T20:35:24.745Z,7.20
2019-01-19T20:40:32.660Z,7.30
2019-01-19T20:45:42.807Z,7.00
2019-01-19T20:50:49.711Z,7.10
2019-01-19T20:55:55.927Z,7.00
2019-01-19T21:01:04.057Z,6.90
2019-01-19T21:06:10.236Z,7.10
2019-01-19T21:11:18.295Z,7.10
2019-01-19T21:16:24.574Z,7.20
2019-01-19T21:21:34.283Z,7.10
2019-01-19T21:26:41.174Z,7.10
2019-01-19T21:31:49.708Z,7.30
2019-01-19T21:36:56.834Z,7.40
2019-01-19T21:42:03.850Z,7.40
2019-01-19T21:47:11.610Z,7.50
2019-01-19T21:52:19.437Z,7.50
2019-01-19T21:57:27.340Z,7.40
2019-01-19T22:02:34.384Z,7.40
2019-01-19T22:07:41.986Z,7.50
2019-01-19T22:12:49.922Z,7.70
2019-01-19T22:17:58.652Z,7.80
2019-01-19T22:23:06.007Z,7.80
2019-01-19T22:28:13.671Z,7.70
2019-01-19T22:33:21.602Z,7.70
2019-01-19T22:38:28.627Z,7.70
2019-01-19T22:43:36.395Z,7.90
2019-01-19T22:48:44.139Z,8.00
2019-01-19T22:53:51.972Z,8.00
2019-01-19T22:58:59.259Z,8.10
2019-01-19T23:04:05.979Z,8.10
2019-01-19T23:09:14.151Z,8.10
2019-01-19T23:14:21.147Z,8.20
2019-01-19T23:19:28.588Z,8.30
2019-01-19T23:24:34.577Z,8.40
2019-01-19T23:29:42.281Z,8.60
2019-01-19T23:34:48.267Z,8.60
2019-01-19T23:39:54.395Z,8.60
2019-01-19T23:45:02.033Z,8.60
2019-01-19T23:50:09.080Z,8.70
2019-01-19T23:55:16.789Z,8.70
